Terminal Aerodrome Forecast
Issued by NWS

Home | Current Version | Previous Version | Text Only | Print | Product List | Glossary On
Versions: 1 2 3 4 5 6 7 8 9 10 11 12 13 14 15 16 17 18 19 20
922
FTUS45 KTFX 191745
TAFLWT
TAF
KLWT 191745Z 1918/2018 27006KT 4SM -SN BR OVC040
     FM200100 VRB05KT P6SM BKN050
     FM200700 20006KT P6SM FEW010 SCT120
     FM201400 27009KT P6SM SCT140=

USA.gov is the U.S. government's official web portal to all federal, state and local government web resources and services.